Mexican Hat, Utah
Current Conditions -  °F | °C
As of 12:55 PM on Thursday 18 Dec 2014 (Local Time) from KBDG Reporting Station
Overcast Overcast  
Wind Chill: 36°   Ceiling: 3200
Heat Index: 36°   Visibility: 10mi
Dew Point: 32°   Wind: 0mph
Humidity: 85%   Direction: NA
Pressure: 30.19"   Gusts: NA
Location:  37.15°N, 109.86°W
Report Text: KBDG 181955Z AUTO 00000KT 10SM BKN032 OVC070 02/00 A3019 RMK AO1 T00221001
Loading
Personal Weather Stations






























Interactive Weather Map New forecast layout! Learn more

10-Day Weather Forecast

Advertisements
Track Severe Weather on mobile